Time;durP1;ratioP1;P1;durP2;ratioP2;P2;SDS_P1;SDS_P2;PMS_P1;PMS_P2;Temp;Humidity;BMP_temperature;BMP_pressure;BME280_temperature;BME280_humidity;BME280_pressure;Samples;Min_cycle;Max_cycle;Signal;HPM_P1;HPM_P2
2022/06/11 00:02:06;;;;;;;10.60;7.85;;;;;;;18.02;93.61;99893.69;4466178;32;34317;-79
2022/06/11 00:04:53;;;;;;;10.25;7.78;;;;;;;18.70;89.28;99892.59;4470970;32;34338;-79
2022/06/11 00:07:39;;;;;;;10.90;7.60;;;;;;;18.25;90.67;99891.09;4467999;32;34634;-78
2022/06/11 00:10:26;;;;;;;10.07;7.87;;;;;;;18.25;91.41;99886.37;4466665;32;34576;-79
2022/06/11 00:13:14;;;;;;;12.68;8.18;;;;;;;18.16;93.34;99892.09;4465935;32;35067;-78
2022/06/11 00:16:01;;;;;;;11.25;8.10;;;;;;;17.23;98.60;99885.84;4466994;32;34434;-78
2022/06/11 00:18:49;;;;;;;10.55;7.85;;;;;;;17.31;97.77;99884.91;4456371;32;34932;-78
2022/06/11 00:21:38;;;;;;;13.32;8.60;;;;;;;17.22;99.29;99887.00;4469698;32;34586;-78
2022/06/11 00:24:27;;;;;;;11.18;7.87;;;;;;;16.96;100.00;99896.50;4470336;32;34852;-78
2022/06/11 00:27:15;;;;;;;10.85;8.13;;;;;;;17.17;100.00;99892.78;4467425;32;34687;-78
2022/06/11 00:30:02;;;;;;;10.27;8.18;;;;;;;17.84;94.81;99888.41;4457319;32;34635;-78
2022/06/11 00:32:49;;;;;;;12.37;8.30;;;;;;;17.84;95.26;99882.88;4471974;32;34757;-79
2022/06/11 00:35:38;;;;;;;10.57;8.23;;;;;;;18.00;94.24;99876.59;4469217;32;35130;-78
2022/06/11 00:38:25;;;;;;;11.75;7.82;;;;;;;17.57;96.96;99892.78;4461553;32;37065;-78
2022/06/11 00:41:11;;;;;;;9.98;8.32;;;;;;;18.11;92.72;99895.09;4467455;32;33425;-78
2022/06/11 00:43:58;;;;;;;11.15;8.57;;;;;;;17.89;94.88;99899.25;4469928;32;34499;-78
2022/06/11 00:46:50;;;;;;;10.82;7.75;;;;;;;17.89;93.50;99904.81;4466724;32;34080;-78
2022/06/11 00:49:45;;;;;;;10.27;8.45;;;;;;;17.52;96.87;99904.91;4466982;32;35267;-78
2022/06/11 00:52:38;;;;;;;22.42;9.85;;;;;;;17.17;99.85;99901.91;4462040;32;36537;-79
2022/06/11 00:55:32;;;;;;;12.90;9.00;;;;;;;17.64;96.50;99900.50;4464804;32;34751;-79
2022/06/11 00:58:21;;;;;;;12.85;8.60;;;;;;;17.82;94.76;99904.63;4464650;32;34333;-79
2022/06/11 01:01:08;;;;;;;11.30;8.38;;;;;;;18.66;90.00;99898.09;4467311;32;34637;-79
2022/06/11 01:03:58;;;;;;;11.15;8.07;;;;;;;18.41;89.26;99903.84;4474317;32;34959;-78
2022/06/11 01:06:53;;;;;;;12.82;8.27;;;;;;;18.25;92.39;99900.22;4456579;32;35178;-79
2022/06/11 01:09:56;;;;;;;12.05;8.10;;;;;;;18.58;89.40;99897.09;4465309;32;35054;-79
2022/06/11 01:12:51;;;;;;;12.20;8.93;;;;;;;18.43;89.40;99892.34;4467983;32;34958;-79
2022/06/11 01:15:53;;;;;;;11.25;8.93;;;;;;;17.94;92.63;99895.44;4469100;32;34931;-78
2022/06/11 01:18:56;;;;;;;12.50;8.75;;;;;;;17.58;97.10;99894.37;4467459;32;35501;-78
2022/06/11 01:21:54;;;;;;;11.73;8.45;;;;;;;18.06;92.36;99889.81;4467308;32;35148;-78
2022/06/11 01:24:55;;;;;;;11.35;7.72;;;;;;;18.59;89.48;99889.59;4456078;32;34510;-78
2022/06/11 01:27:56;;;;;;;10.38;7.40;;;;;;;18.71;88.34;99899.78;4467838;32;36071;-78
2022/06/11 01:30:51;;;;;;;15.95;8.27;;;;;;;19.02;86.43;99898.97;4472644;32;34729;-79
2022/06/11 01:33:46;;;;;;;11.57;7.75;;;;;;;18.90;85.93;99897.13;4472110;32;34598;-79
2022/06/11 01:36:36;;;;;;;10.55;8.02;;;;;;;19.18;84.08;99896.16;4473123;32;34521;-79
2022/06/11 01:39:42;;;;;;;11.30;8.40;;;;;;;19.27;83.42;99899.53;4473125;32;35014;-79
2022/06/11 01:42:41;;;;;;;13.73;8.32;;;;;;;18.95;85.41;99902.37;4459841;32;34348;-79
2022/06/11 01:45:35;;;;;;;12.48;8.65;;;;;;;18.51;87.89;99901.69;4461050;32;35082;-79
2022/06/11 01:48:25;;;;;;;12.30;8.57;;;;;;;17.80;92.16;99900.59;4457436;32;35428;-79
2022/06/11 01:51:20;;;;;;;11.43;8.40;;;;;;;17.97;90.30;99900.28;4467840;32;34909;-79
2022/06/11 01:54:31;;;;;;;11.95;7.97;;;;;;;17.47;94.29;99913.47;4469281;32;34784;-79
2022/06/11 01:57:54;;;;;;;15.27;8.32;;;;;;;17.32;94.61;99903.13;4470342;32;33331;-79
2022/06/11 02:00:45;;;;;;;11.07;8.30;;;;;;;17.52;93.68;99907.69;4454580;32;34527;-79
2022/06/11 02:03:52;;;;;;;11.90;7.47;;;;;;;17.48;94.47;99911.53;4459686;32;34535;-79
2022/06/11 02:07:00;;;;;;;12.05;8.60;;;;;;;17.73;92.85;99915.81;4468714;32;34227;-78
2022/06/11 02:10:04;;;;;;;11.38;7.62;;;;;;;17.21;95.21;99921.38;4467843;32;34150;-79
2022/06/11 02:12:58;;;;;;;11.25;8.18;;;;;;;17.14;95.08;99918.41;4456633;32;34761;-78
2022/06/11 02:15:56;;;;;;;11.65;8.48;;;;;;;16.81;98.39;99920.13;4467041;32;35142;-79
2022/06/11 02:18:46;;;;;;;11.60;8.18;;;;;;;17.31;95.20;99923.69;4468171;32;34788;-79
2022/06/11 02:21:49;;;;;;;11.32;8.65;;;;;;;17.20;95.84;99928.88;4472403;32;35017;-79
2022/06/11 02:24:40;;;;;;;12.30;8.90;;;;;;;17.07;95.73;99925.31;4465483;32;36925;-79
2022/06/11 02:27:29;;;;;;;9.95;7.90;;;;;;;16.21;100.00;99918.09;4453804;32;34969;-79
2022/06/11 02:30:20;;;;;;;13.25;8.38;;;;;;;16.89;97.35;99923.94;4465108;32;34687;-79
2022/06/11 02:33:10;;;;;;;13.32;9.32;;;;;;;17.07;96.95;99930.03;4467041;32;34194;-79
2022/06/11 02:36:18;;;;;;;11.35;8.82;;;;;;;16.26;100.00;99928.94;4466183;32;33609;-78
2022/06/11 02:39:04;;;;;;;11.98;8.65;;;;;;;16.21;100.00;99920.84;4465225;32;34967;-79
2022/06/11 02:41:51;;;;;;;12.73;9.40;;;;;;;17.00;99.84;99933.41;4468034;32;34628;-78
2022/06/11 02:44:38;;;;;;;11.10;8.43;;;;;;;17.17;96.92;99935.13;4469043;32;33012;-78
2022/06/11 02:47:24;;;;;;;14.52;8.48;;;;;;;17.08;96.84;99929.72;4469992;32;35072;-79
2022/06/11 02:50:32;;;;;;;13.13;8.73;;;;;;;16.74;100.00;99928.19;4469366;32;34938;-78
2022/06/11 02:53:18;;;;;;;12.05;8.73;;;;;;;16.92;97.48;99933.53;4446022;32;34320;-79
2022/06/11 02:56:05;;;;;;;13.88;9.40;;;;;;;16.87;97.74;99942.84;4465226;32;34395;-78
2022/06/11 02:58:51;;;;;;;11.70;8.38;;;;;;;16.70;99.12;99943.06;4465907;32;35136;-78
2022/06/11 03:01:39;;;;;;;13.20;8.57;;;;;;;17.07;96.15;99941.91;4464924;32;35843;-79
2022/06/11 03:04:28;;;;;;;13.07;8.80;;;;;;;17.69;91.90;99941.81;4467256;32;35544;-78
2022/06/11 03:07:15;;;;;;;11.77;8.63;;;;;;;17.45;93.93;99937.16;4469357;32;35129;-78
2022/06/11 03:10:03;;;;;;;11.55;8.85;;;;;;;17.74;90.95;99944.34;4469516;32;35204;-79
2022/06/11 03:12:49;;;;;;;10.77;7.78;;;;;;;18.11;88.67;99941.44;4457109;32;34892;-78
2022/06/11 03:15:35;;;;;;;10.88;8.73;;;;;;;17.92;90.69;99937.34;4467899;32;35530;-78
2022/06/11 03:18:22;;;;;;;10.70;8.73;;;;;;;17.97;90.33;99939.87;4466422;32;34061;-78
2022/06/11 03:21:09;;;;;;;13.80;9.13;;;;;;;18.28;88.26;99932.00;4475955;32;34106;-79
2022/06/11 03:23:55;;;;;;;11.27;8.73;;;;;;;18.35;87.37;99932.97;4472469;32;35924;-78
2022/06/11 03:26:42;;;;;;;12.05;8.63;;;;;;;18.41;87.77;99934.34;4470451;32;34218;-78
2022/06/11 03:29:28;;;;;;;10.20;8.57;;;;;;;18.55;86.45;99942.22;4468373;32;34166;-78
2022/06/11 03:32:15;;;;;;;12.73;9.75;;;;;;;18.61;86.30;99953.84;4467632;32;34148;-78
2022/06/11 03:35:02;;;;;;;11.32;8.63;;;;;;;18.37;87.09;99963.94;4463933;32;34690;-78
2022/06/11 03:37:49;;;;;;;9.95;8.32;;;;;;;18.48;86.94;99969.78;4466600;32;35414;-78
2022/06/11 03:40:35;;;;;;;12.77;9.68;;;;;;;17.17;92.17;99971.13;4468533;32;34148;-79
2022/06/11 03:43:23;;;;;;;13.68;10.43;;;;;;;16.72;99.56;99971.19;4465386;32;34511;-79
2022/06/11 03:46:10;;;;;;;14.50;9.48;;;;;;;16.73;98.85;99973.59;4467817;32;35248;-79
2022/06/11 03:48:57;;;;;;;11.57;9.20;;;;;;;16.79;98.53;99968.69;4468294;32;33930;-79
2022/06/11 03:51:44;;;;;;;13.48;9.43;;;;;;;16.78;99.77;99958.78;4468401;32;33250;-79
2022/06/11 03:54:30;;;;;;;10.27;8.73;;;;;;;16.68;99.86;99962.78;4465058;32;34619;-78
2022/06/11 03:57:17;;;;;;;12.50;9.45;;;;;;;16.77;99.25;99962.69;4468747;32;35959;-78
2022/06/11 04:00:08;;;;;;;11.70;9.38;;;;;;;17.67;93.33;99969.87;4445357;32;34128;-78
2022/06/11 04:02:54;;;;;;;12.10;8.35;;;;;;;17.89;91.79;99974.09;4466706;32;33678;-78
2022/06/11 04:05:41;;;;;;;13.48;9.48;;;;;;;17.54;92.70;99971.88;4465940;32;35067;-78
2022/06/11 04:08:28;;;;;;;12.05;9.13;;;;;;;17.31;94.79;99968.00;4469138;32;34992;-78
2022/06/11 04:11:16;;;;;;;11.32;8.73;;;;;;;17.94;92.26;99970.28;4467811;32;34652;-78
2022/06/11 04:14:02;;;;;;;13.02;9.50;;;;;;;16.87;100.00;99970.53;4468186;32;34255;-78
2022/06/11 04:17:11;;;;;;;11.25;8.63;;;;;;;17.12;97.24;99970.53;4469171;32;34825;-78
2022/06/11 04:19:57;;;;;;;12.75;8.90;;;;;;;17.99;92.90;99970.03;4466892;32;35973;-78
2022/06/11 04:22:45;;;;;;;12.10;9.07;;;;;;;17.46;97.53;99972.81;4457053;32;34597;-78
2022/06/11 04:25:31;;;;;;;13.13;8.68;;;;;;;17.46;97.35;99964.50;4465500;32;34869;-78
2022/06/11 04:28:17;;;;;;;10.68;8.75;;;;;;;18.07;94.57;99962.72;4464318;32;105745;-79
2022/06/11 04:31:06;;;;;;;10.57;7.50;;;;;;;17.80;95.51;99961.56;4465493;32;34089;-78
2022/06/11 04:33:53;;;;;;;10.80;7.93;;;;;;;18.20;89.70;99967.03;4466816;32;34564;-79
2022/06/11 04:36:41;;;;;;;9.00;7.55;;;;;;;18.14;91.55;99958.19;4468036;32;34273;-79
2022/06/11 04:39:30;;;;;;;10.10;7.75;;;;;;;18.08;91.62;99967.91;4454352;32;34695;-79
2022/06/11 04:42:18;;;;;;;10.07;8.23;;;;;;;18.01;92.80;99966.91;4466241;32;35060;-79
2022/06/11 04:45:05;;;;;;;10.40;7.70;;;;;;;18.64;89.87;99956.75;4466517;32;35637;-79
2022/06/11 04:47:51;;;;;;;8.95;7.18;;;;;;;18.32;91.62;99969.75;4465831;32;34039;-78
2022/06/11 04:50:38;;;;;;;9.70;7.30;;;;;;;18.10;94.78;99973.09;4463113;32;34594;-78
2022/06/11 04:53:24;;;;;;;9.75;7.05;;;;;;;18.22;91.35;99970.28;4467124;32;34988;-79
2022/06/11 04:56:13;;;;;;;9.55;7.65;;;;;;;18.30;90.59;99972.09;4467215;32;35462;-78
2022/06/11 04:59:00;;;;;;;9.73;7.78;;;;;;;17.98;92.38;99987.81;4466833;32;34193;-78
2022/06/11 05:01:52;;;;;;;9.68;7.12;;;;;;;18.45;92.32;99981.59;4465990;32;34404;-79
2022/06/11 05:04:38;;;;;;;10.38;7.28;;;;;;;18.57;91.66;99977.94;4465383;32;34915;-78
2022/06/11 05:07:25;;;;;;;10.40;7.68;;;;;;;19.10;88.40;99978.50;4463917;32;34550;-79
2022/06/11 05:10:14;;;;;;;12.37;7.93;;;;;;;19.26;87.76;99982.06;4464704;32;35064;-79
2022/06/11 05:13:02;;;;;;;11.88;8.23;;;;;;;19.07;87.96;99991.16;4464581;32;34286;-79
2022/06/11 05:15:51;;;;;;;11.48;7.80;;;;;;;18.95;88.66;99990.41;4465550;32;35081;-79
2022/06/11 05:18:37;;;;;;;10.20;8.15;;;;;;;18.67;90.41;100002.41;4466311;32;35510;-79
2022/06/11 05:21:24;;;;;;;10.82;7.90;;;;;;;18.79;90.09;99996.78;4467219;32;34642;-79
2022/06/11 05:24:11;;;;;;;9.68;7.75;;;;;;;18.82;90.01;100001.62;4464951;32;34612;-78
2022/06/11 05:27:03;;;;;;;10.57;8.00;;;;;;;19.23;87.43;99999.44;4451869;32;36098;-79
2022/06/11 05:29:53;;;;;;;;;;;;;;;18.89;89.30;100003.75;4467532;32;34295;-78
2022/06/11 05:32:41;;;;;;;12.02;8.70;;;;;;;18.75;90.70;100009.75;4467316;32;33994;-78
2022/06/11 05:35:30;;;;;;;12.07;8.40;;;;;;;18.33;93.66;100007.44;4466284;32;35312;-78
2022/06/11 05:38:20;;;;;;;10.55;8.45;;;;;;;18.87;90.19;100011.66;4465218;32;36028;-78
2022/06/11 05:41:07;;;;;;;10.48;8.00;;;;;;;19.21;88.97;100006.53;4457801;32;34788;-79
2022/06/11 05:43:54;;;;;;;12.48;8.60;;;;;;;18.51;93.98;100016.25;4454171;32;34385;-79
2022/06/11 05:46:40;;;;;;;11.73;8.85;;;;;;;18.40;95.55;100013.16;4465959;32;34667;-79
2022/06/11 05:49:31;;;;;;;12.35;8.55;;;;;;;18.53;93.77;100021.44;4466400;32;34776;-79
2022/06/11 05:52:23;;;;;;;11.30;8.63;;;;;;;18.84;92.61;100015.12;4464712;32;35575;-79
2022/06/11 05:55:10;;;;;;;12.23;9.00;;;;;;;18.45;95.66;100020.44;4454986;32;34170;-79
2022/06/11 05:58:01;;;;;;;10.00;7.97;;;;;;;19.04;92.26;100016.84;4462043;32;35550;-79
2022/06/11 06:00:48;;;;;;;10.77;8.68;;;;;;;19.08;90.46;100023.28;4464630;32;35899;-79
2022/06/11 06:03:35;;;;;;;9.90;8.25;;;;;;;18.60;93.30;100027.97;4462479;32;34803;-79
2022/06/11 06:06:21;;;;;;;13.02;8.82;;;;;;;18.47;94.10;100039.50;4465172;32;34054;-79
2022/06/11 06:09:07;;;;;;;8.93;7.50;;;;;;;18.64;94.49;100028.06;4463023;32;34701;-79
2022/06/11 06:11:54;;;;;;;10.23;7.85;;;;;;;18.66;94.02;100031.31;4455052;32;34441;-79
2022/06/11 06:14:40;;;;;;;10.65;7.95;;;;;;;19.45;89.47;100033.31;4465542;32;34250;-77
2022/06/11 06:17:27;;;;;;;11.98;7.93;;;;;;;19.62;89.41;100027.34;4466174;32;34060;-79
2022/06/11 06:20:21;;;;;;;9.43;7.75;;;;;;;20.06;84.91;100029.09;4464870;32;35812;-79
2022/06/11 06:23:07;;;;;;;9.88;7.18;;;;;;;19.41;89.30;100029.63;4465579;32;34904;-78
2022/06/11 06:25:54;;;;;;;9.85;6.45;;;;;;;19.33;86.92;100018.34;4464026;32;34599;-78
2022/06/11 06:28:41;;;;;;;8.23;6.72;;;;;;;19.62;85.66;100016.22;4466813;32;34761;-78
2022/06/11 06:31:27;;;;;;;10.27;7.50;;;;;;;20.03;83.73;100013.16;4465821;32;34630;-78
2022/06/11 06:34:14;;;;;;;8.40;7.07;;;;;;;20.43;83.78;100007.19;4448821;32;34422;-78
2022/06/11 06:37:00;;;;;;;10.02;6.32;;;;;;;20.67;82.03;100004.09;4461377;32;35705;-77
2022/06/11 06:39:46;;;;;;;9.93;6.60;;;;;;;20.72;80.12;100003.00;4465031;32;33990;-78
2022/06/11 06:42:33;;;;;;;9.02;6.72;;;;;;;20.73;78.64;100009.38;4465677;32;34790;-77
2022/06/11 06:45:20;;;;;;;11.20;6.47;;;;;;;20.77;77.51;100016.59;4465122;32;35885;-78
2022/06/11 06:48:07;;;;;;;10.25;6.57;;;;;;;21.17;76.25;100015.28;4466596;32;34226;-77
2022/06/11 06:50:53;;;;;;;7.97;5.68;;;;;;;21.49;75.56;100021.41;4462856;32;34141;-77
2022/06/11 06:53:41;;;;;;;8.07;5.93;;;;;;;21.65;71.26;100018.44;4440752;32;34072;-80
2022/06/11 06:56:33;;;;;;;9.73;5.95;;;;;;;21.71;73.27;100027.28;4460514;32;33946;-80
2022/06/11 06:59:19;;;;;;;19.25;7.93;;;;;;;21.56;74.86;100021.50;4456732;32;35485;-80
2022/06/11 07:02:06;;;;;;;14.60;7.07;;;;;;;21.68;73.19;100026.03;4463067;32;34252;-80
2022/06/11 07:04:52;;;;;;;9.05;5.93;;;;;;;21.75;74.28;100028.16;4454202;32;35059;-81
2022/06/11 07:07:40;;;;;;;9.15;6.68;;;;;;;21.60;75.56;100023.53;4460022;32;35747;-80
2022/06/11 07:10:26;;;;;;;8.57;6.53;;;;;;;21.62;74.71;100023.97;4457644;32;34844;-79
2022/06/11 07:13:13;;;;;;;14.98;7.40;;;;;;;21.95;74.19;100024.03;4462353;32;34918;-80
2022/06/11 07:16:00;;;;;;;10.40;7.00;;;;;;;21.64;74.12;100028.00;4460484;32;34280;-80
2022/06/11 07:18:55;;;;;;;12.30;7.03;;;;;;;22.01;74.14;100025.31;4462650;32;33005;-79
2022/06/11 07:21:45;;;;;;;8.57;6.18;;;;;;;21.63;75.59;100014.41;4462377;32;35253;-80
2022/06/11 07:24:32;;;;;;;9.75;6.55;;;;;;;21.59;75.66;100019.13;4463253;32;34070;-79
2022/06/11 07:27:22;;;;;;;10.40;6.55;;;;;;;21.64;74.78;100018.81;4461397;32;35544;-80
2022/06/11 07:30:22;;;;;;;9.70;6.15;;;;;;;22.36;72.56;100018.56;4461154;32;34651;-80
2022/06/11 07:33:13;;;;;;;8.00;5.75;;;;;;;22.52;72.73;100026.72;4451213;32;35784;-80
2022/06/11 07:35:59;;;;;;;51.25;11.55;;;;;;;23.01;71.21;100031.22;4458253;32;36844;-82
2022/06/11 07:38:47;;;;;;;8.10;6.43;;;;;;;22.12;72.29;100024.66;4454158;32;33560;-81
2022/06/11 07:41:33;;;;;;;10.95;5.95;;;;;;;22.44;70.76;100019.47;4449757;32;35005;-83
2022/06/11 07:44:20;;;;;;;8.98;5.90;;;;;;;22.76;69.21;100013.41;4454593;32;34316;-83
2022/06/11 07:47:06;;;;;;;11.35;6.18;;;;;;;22.75;69.12;100015.38;4458820;32;34117;-82
2022/06/11 07:49:53;;;;;;;7.95;6.32;;;;;;;22.56;69.59;100012.81;4465830;32;34769;-83
2022/06/11 07:52:40;;;;;;;7.65;5.87;;;;;;;22.81;69.03;100013.84;4445581;32;35653;-83
2022/06/11 07:55:27;;;;;;;7.93;5.93;;;;;;;22.63;70.04;100019.28;4447164;32;35040;-83
2022/06/11 07:58:15;;;;;;;11.98;6.35;;;;;;;22.58;69.03;100027.19;4458755;32;34093;-82
2022/06/11 08:01:02;;;;;;;7.00;5.65;;;;;;;23.17;66.23;100024.56;4449568;32;33312;-80
2022/06/11 08:03:48;;;;;;;8.00;6.12;;;;;;;22.79;69.03;100026.59;4463074;32;35077;-83
2022/06/11 08:06:35;;;;;;;9.40;6.10;;;;;;;23.01;68.71;100019.25;4453687;32;34541;-83
2022/06/11 08:09:21;;;;;;;8.88;5.53;;;;;;;23.03;68.70;100025.25;4454347;32;34076;-85
2022/06/11 08:12:08;;;;;;;9.85;6.18;;;;;;;23.56;67.06;100027.63;4458314;32;34692;-83
2022/06/11 08:14:56;;;;;;;8.18;5.93;;;;;;;23.61;66.34;100016.09;4461328;32;35983;-83
2022/06/11 08:17:49;;;;;;;7.18;5.95;;;;;;;23.21;66.85;100022.59;4458686;32;35285;-83
2022/06/11 08:20:36;;;;;;;7.93;5.62;;;;;;;23.20;67.45;100021.81;4462967;32;34164;-81
2022/06/11 08:23:23;;;;;;;7.50;5.93;;;;;;;23.73;66.41;100014.97;4462003;32;34983;-82
2022/06/11 08:26:10;;;;;;;7.20;5.65;;;;;;;23.58;64.93;100022.47;4436236;32;35918;-82
2022/06/11 08:28:56;;;;;;;7.28;5.65;;;;;;;23.70;64.41;100022.16;4464738;32;34539;-82
2022/06/11 08:31:42;;;;;;;7.70;5.80;;;;;;;23.83;63.50;100010.66;4451052;32;33714;-87
2022/06/11 08:34:31;;;;;;;9.70;5.68;;;;;;;24.10;62.72;100005.56;4458601;32;35159;-84
2022/06/11 08:37:18;;;;;;;8.70;6.43;;;;;;;24.74;62.09;100010.59;4459171;32;36505;-81
2022/06/11 08:40:15;;;;;;;7.50;6.28;;;;;;;24.00;63.36;100015.53;4462834;32;35055;-82
2022/06/11 08:43:24;;;;;;;7.72;6.00;;;;;;;23.98;64.24;100003.94;4461223;32;34088;-79
2022/06/11 08:46:14;;;;;;;8.77;6.10;;;;;;;24.15;63.57;100008.00;4459669;32;34350;-85
2022/06/11 08:49:04;;;;;;;8.77;6.50;;;;;;;24.07;62.99;99995.16;4461592;32;35893;-83
2022/06/11 08:51:55;;;;;;;8.25;5.80;;;;;;;24.97;61.36;100008.19;4463494;32;34600;-81
2022/06/11 08:54:45;;;;;;;10.88;6.45;;;;;;;24.51;59.93;100011.75;4463883;32;33805;-83
2022/06/11 08:58:02;;;;;;;8.60;6.18;;;;;;;24.34;61.97;100007.66;4458610;32;34580;-82
2022/06/11 09:01:04;;;;;;;9.57;5.85;;;;;;;24.23;63.32;100004.81;4456287;32;34915;-82
2022/06/11 09:04:04;;;;;;;26.30;9.20;;;;;;;24.05;62.41;99997.53;4459857;32;35499;-83
2022/06/11 09:07:32;;;;;;;10.20;5.90;;;;;;;24.83;60.59;99994.97;4462967;32;34347;-81
2022/06/11 09:10:37;;;;;;;10.23;6.10;;;;;;;25.13;57.89;100000.19;4463050;32;34615;-78
2022/06/11 09:13:43;;;;;;;10.20;6.20;;;;;;;24.81;58.32;99997.38;4450902;32;34889;-85
2022/06/11 09:16:52;;;;;;;9.52;6.62;;;;;;;25.17;59.37;99994.59;4460506;32;34661;-82
2022/06/11 09:19:38;;;;;;;7.53;6.72;;;;;;;24.85;58.94;100005.78;4464669;32;34231;-81
2022/06/11 09:22:55;;;;;;;7.82;6.32;;;;;;;25.25;58.98;99998.22;4464261;32;34622;-84
2022/06/11 09:25:53;;;;;;;8.02;6.50;;;;;;;25.83;58.24;99996.91;4463431;32;34637;-84
2022/06/11 09:29:01;;;;;;;8.23;6.75;;;;;;;25.40;56.76;99994.19;4464295;32;34617;-85
2022/06/11 09:31:56;;;;;;;9.35;5.90;;;;;;;24.91;58.38;99993.78;4464280;32;33043;-84
2022/06/11 09:35:14;;;;;;;8.02;5.87;;;;;;;25.35;58.23;99991.78;4459979;32;35498;-85
2022/06/11 09:38:16;;;;;;;9.10;6.15;;;;;;;25.44;55.20;99991.34;4458210;32;35484;-86
2022/06/11 09:41:05;;;;;;;;;;;;;;;25.90;54.26;99991.28;4463248;32;34668;-88
2022/06/11 09:44:17;;;;;;;10.23;6.45;;;;;;;24.88;57.01;99982.56;4464870;32;34166;-86
2022/06/11 09:47:22;;;;;;;7.65;6.18;;;;;;;25.17;57.21;99985.41;4451945;32;35562;-86
2022/06/11 09:50:26;;;;;;;8.35;6.18;;;;;;;25.18;57.92;99984.19;4463792;32;34637;-87
2022/06/11 09:53:37;;;;;;;8.25;6.40;;;;;;;25.45;55.32;99985.34;4462861;32;35145;-86
2022/06/11 09:56:30;;;;;;;12.15;6.60;;;;;;;25.39;55.62;99975.75;4462194;32;33684;-84
2022/06/11 09:59:36;;;;;;;8.02;6.03;;;;;;;25.25;57.94;99970.97;4461153;32;34277;-86
2022/06/11 10:03:07;;;;;;;8.27;5.95;;;;;;;25.42;57.90;99976.97;4461184;32;34955;-85
2022/06/11 10:06:00;;;;;;;9.88;6.05;;;;;;;24.95;56.74;99985.37;4460141;32;35276;-85
2022/06/11 10:09:00;;;;;;;8.65;6.32;;;;;;;25.20;56.43;99982.59;4461327;32;34712;-84
2022/06/11 10:12:14;;;;;;;8.40;6.32;;;;;;;24.51;58.77;99980.94;4450487;32;34348;-86
2022/06/11 10:15:11;;;;;;;8.98;6.12;;;;;;;25.13;56.90;99983.38;4460169;32;34963;-86
2022/06/11 10:18:18;;;;;;;9.38;6.25;;;;;;;24.96;57.46;99975.78;4460399;32;35553;-86
2022/06/11 10:21:15;;;;;;;8.65;6.22;;;;;;;24.72;59.44;99979.34;4460011;32;34636;-84
2022/06/11 10:24:04;;;;;;;6.62;5.78;;;;;;;24.62;58.41;99969.75;4458352;32;33321;-85
2022/06/11 10:27:01;;;;;;;6.53;5.75;;;;;;;24.81;59.62;99976.94;4461640;32;35885;-87
2022/06/11 10:29:50;;;;;;;7.30;5.87;;;;;;;24.79;56.86;99973.75;4459094;32;34883;-86
2022/06/11 10:32:41;;;;;;;6.75;5.20;;;;;;;24.96;58.01;99972.16;4457585;32;32809;-85
2022/06/11 10:35:42;;;;;;;6.65;5.30;;;;;;;24.76;56.43;99968.94;4456693;32;35848;-86
2022/06/11 10:39:04;;;;;;;7.47;5.30;;;;;;;24.96;55.38;99966.53;4447808;32;35018;-85
2022/06/11 10:42:12;;;;;;;9.15;5.53;;;;;;;24.87;55.24;99961.34;4442166;32;34234;-86
2022/06/11 10:45:02;;;;;;;6.75;5.57;;;;;;;24.86;56.96;99968.16;4461773;32;34149;-85
2022/06/11 10:47:50;;;;;;;9.63;6.32;;;;;;;24.91;55.15;99971.34;4451308;32;34650;-86
2022/06/11 10:50:37;;;;;;;8.45;6.00;;;;;;;24.78;57.03;99960.94;4455640;32;35031;-84
2022/06/11 10:53:35;;;;;;;11.55;6.05;;;;;;;24.96;55.49;99975.78;4450632;32;34593;-86
2022/06/11 10:56:38;;;;;;;6.82;4.93;;;;;;;24.34;56.54;99967.66;4460596;32;34733;-84
2022/06/11 10:59:30;;;;;;;7.25;5.22;;;;;;;24.47;57.13;99960.50;4459428;32;34472;-87
2022/06/11 11:02:31;;;;;;;8.85;5.75;;;;;;;24.94;54.97;99971.75;4462254;32;35026;-84
2022/06/11 11:05:19;;;;;;;7.12;5.05;;;;;;;25.19;54.02;99960.53;4460903;32;35439;-85
2022/06/11 11:08:06;;;;;;;6.93;5.12;;;;;;;24.89;54.31;99958.94;4462084;32;33853;-86
2022/06/11 11:10:54;;;;;;;6.97;4.68;;;;;;;24.39;56.42;99964.44;4449509;32;35463;-86
2022/06/11 11:13:45;;;;;;;9.40;4.93;;;;;;;24.71;54.84;99960.94;4458568;32;34466;-87
2022/06/11 11:16:36;;;;;;;7.07;4.62;;;;;;;24.89;54.15;99961.75;4458241;32;35612;-86
2022/06/11 11:19:25;;;;;;;7.12;4.55;;;;;;;24.61;55.46;99966.12;4458543;32;34928;-88
2022/06/11 11:22:19;;;;;;;8.38;4.70;;;;;;;24.23;56.46;99957.22;4461512;32;34379;-86
2022/06/11 11:25:12;;;;;;;8.63;5.32;;;;;;;24.11;57.38;99957.59;4466174;32;35702;-86
2022/06/11 11:27:59;;;;;;;7.65;5.10;;;;;;;25.17;53.35;99948.94;4465330;32;34344;-85
2022/06/11 11:30:46;;;;;;;10.18;5.03;;;;;;;25.78;50.96;99941.94;4464525;32;35365;-83
2022/06/11 11:33:38;;;;;;;6.72;4.80;;;;;;;26.72;49.80;99939.44;4464203;32;34645;-85
2022/06/11 11:36:26;;;;;;;7.32;5.28;;;;;;;26.96;49.95;99945.28;4464376;32;34996;-85
2022/06/11 11:39:13;;;;;;;6.53;5.25;;;;;;;26.61;47.55;99939.56;4463825;32;35669;-85
2022/06/11 11:42:10;;;;;;;7.03;5.40;;;;;;;26.31;49.54;99942.94;4462409;32;34016;-86
2022/06/11 11:44:58;;;;;;;7.68;4.47;;;;;;;26.15;49.20;99934.19;4465289;32;34643;-87
2022/06/11 11:47:44;;;;;;;8.82;5.28;;;;;;;26.61;49.09;99928.31;4463540;32;34970;-84
2022/06/11 11:50:36;;;;;;;8.02;5.25;;;;;;;26.97;48.56;99933.63;4464907;32;35384;-84
2022/06/11 11:53:26;;;;;;;8.20;5.12;;;;;;;26.83;48.18;99928.91;4466276;32;35234;-86
2022/06/11 11:56:21;;;;;;;8.40;4.65;;;;;;;27.04;45.51;99924.34;4462421;32;35594;-88
2022/06/11 11:59:10;;;;;;;7.57;4.80;;;;;;;26.24;47.44;99920.50;4463222;32;34368;-86
2022/06/11 12:02:09;;;;;;;6.22;4.50;;;;;;;26.94;47.85;99925.22;4464895;32;35470;-87
2022/06/11 12:05:02;;;;;;;6.20;4.43;;;;;;;27.02;44.95;99919.13;4464018;32;34219;-87
2022/06/11 12:07:50;;;;;;;5.93;4.20;;;;;;;27.23;45.24;99918.13;4464079;32;34689;-86
2022/06/11 12:10:39;;;;;;;7.90;4.53;;;;;;;26.78;45.93;99918.13;4465318;32;34578;-87
2022/06/11 12:13:42;;;;;;;7.03;4.40;;;;;;;26.53;46.55;99914.72;4454880;32;35253;-85
2022/06/11 12:16:35;;;;;;;6.47;4.30;;;;;;;27.08;45.14;99925.09;4464227;32;33418;-86
2022/06/11 12:19:31;;;;;;;5.95;4.60;;;;;;;27.37;44.37;99911.53;4455319;32;34769;-87
2022/06/11 12:22:27;;;;;;;5.45;4.20;;;;;;;26.24;45.96;99912.88;4460935;32;36045;-84
2022/06/11 12:25:22;;;;;;;6.90;4.18;;;;;;;25.51;45.68;99913.59;4452681;32;34831;-86
2022/06/11 12:28:12;;;;;;;4.12;3.47;;;;;;;25.90;47.31;99912.69;4459066;32;34358;-87
2022/06/11 12:30:59;;;;;;;6.37;3.97;;;;;;;26.37;46.29;99918.81;4463787;32;35117;-77
2022/06/11 12:33:46;;;;;;;6.12;3.87;;;;;;;26.02;46.55;99914.22;4460985;32;34996;-78
2022/06/11 12:36:47;;;;;;;4.75;4.07;;;;;;;26.20;46.79;99914.09;4464678;32;34693;-77
2022/06/11 12:39:42;;;;;;;5.90;4.10;;;;;;;26.90;45.26;99911.19;4464309;32;34178;-76
2022/06/11 12:42:37;;;;;;;8.07;4.25;;;;;;;26.95;45.27;99910.72;4463771;32;34385;-77
2022/06/11 12:45:27;;;;;;;6.28;4.00;;;;;;;27.53;46.02;99905.34;4463141;32;35534;-78
2022/06/11 12:48:48;;;;;;;6.10;4.13;;;;;;;27.17;43.88;99908.53;4464575;32;34149;-77
2022/06/11 12:51:47;;;;;;;5.97;3.90;;;;;;;26.29;45.37;99906.00;4464633;32;34091;-77
2022/06/11 12:55:01;;;;;;;5.45;4.12;;;;;;;27.50;45.26;99912.63;4464935;32;33712;-78
2022/06/11 12:58:13;;;;;;;6.43;4.32;;;;;;;27.52;43.44;99901.75;4459942;32;34972;-77
2022/06/11 13:01:34;;;;;;;5.85;4.20;;;;;;;27.73;43.93;99889.41;4462805;32;34990;-79
2022/06/11 13:04:39;;;;;;;5.10;3.75;;;;;;;27.35;43.81;99891.47;4462506;32;34190;-78
2022/06/11 13:07:31;;;;;;;7.10;4.32;;;;;;;28.08;42.48;99889.38;4462273;32;34669;-78
2022/06/11 13:10:27;;;;;;;5.50;4.32;;;;;;;27.49;44.06;99882.06;4462472;32;35015;-77
2022/06/11 13:13:20;;;;;;;9.10;4.47;;;;;;;27.45;43.65;99889.75;4460642;32;34586;-78
2022/06/11 13:16:14;;;;;;;5.32;4.00;;;;;;;27.80;42.71;99880.88;4462162;32;35052;-80
2022/06/11 13:19:22;;;;;;;5.00;4.15;;;;;;;27.29;43.50;99888.31;4458047;32;34815;-79
2022/06/11 13:22:27;;;;;;;5.10;4.00;;;;;;;27.01;45.31;99885.78;4460679;32;34986;-79
2022/06/11 13:25:25;;;;;;;7.47;4.50;;;;;;;27.54;44.75;99882.41;4463777;32;35696;-78